Flight Number: EUR1159 Duration: 1:15
Departure: Helsinki Vantaa (EFHK) at 18:30 Distance: 414 Nm
Arrival: Gdansk Zechowo (EPGD) at 19:45 Equipment: A321

Weather Information
Helsinki-Vantaa, Finland (EFHK) 60-19N 024-58E 56M Aug 19, 2018 - 04:50 AM EDT / 2018.08.19 0850 UTC
Wind: from the WSW (240 degrees) at 17 MPH (15 KT):0
Visibility: greater than 7 mile(s):0
Sky conditions: mostly cloudy Temperature: 66 F (19 C) Dew Point: 59 F (15 C) Relative Humidity: 77% Pressure (altimeter): 29.77 in. Hg (1008 hPa)
ob: EFHK 190850Z 24015KT 9999 BKN017 19/15 Q1008 NOSIG cycle: 9
Sunrise: 02:49 Sunset: 17:58 (UTC)

Gdansk-Rebiechowo, Poland (EPGD) 54-23N 018-28E 138M Aug 19, 2018 - 05:00 AM EDT / 2018.08.19 0900 UTC
Wind: from the WSW (250 degrees) at 8 MPH (7 KT) (direction variable):0
Visibility: greater than 7 mile(s):0 Temperature: 71 F (22 C) Dew Point: 53 F (12 C) Relative Humidity: 53% Pressure (altimeter): 30.12 in. Hg (1020 hPa)
ob: EPGD 190900Z 25007KT 210V290 CAVOK 22/12 Q1020 cycle: 9
Sunrise: 03:35 Sunset: 18:03 (UTC)

TAF:2018/08/19 06:33 TAF TAF EPGD 190530Z 1906/2006 VRB03KT CAVOK BECMG 1906/1909 26010KT BECMG 1915/1917 VRB03KT

Previous Pireps for this route
Date Aircraft Flight time Fuel used Landing rate On time
2012-11-30A32101.419740-401Yes
2013-08-17A32101.4611774-324No
2015-04-08A3211.1597000No
(pireps marked green are flown by you)

Route map